createdAt,value
2023-01-03T00:02:30.588Z,68.90
2023-01-03T00:05:18.808Z,69.40
2023-01-03T00:08:04.550Z,69.50
2023-01-03T00:10:49.827Z,68.60
2023-01-03T00:13:35.356Z,68.10
2023-01-03T00:16:21.507Z,67.80
2023-01-03T00:19:08.919Z,67.90
2023-01-03T00:21:55.931Z,67.80
2023-01-03T00:24:41.873Z,67.90
2023-01-03T00:27:29.964Z,68.40
2023-01-03T00:30:15.991Z,68.40
2023-01-03T00:33:01.636Z,67.50
2023-01-03T00:35:51.786Z,67.10
2023-01-03T00:38:37.888Z,67.10
2023-01-03T00:41:26.163Z,67.60
2023-01-03T00:44:12.434Z,67.70
2023-01-03T00:46:58.114Z,67.40
2023-01-03T00:49:45.822Z,67.50
2023-01-03T00:52:31.180Z,67.00
2023-01-03T00:55:16.900Z,67.00
2023-01-03T00:58:02.389Z,66.60
2023-01-03T01:00:50.104Z,66.60
2023-01-03T01:03:37.266Z,66.70
2023-01-03T01:06:25.711Z,66.90
2023-01-03T01:09:14.293Z,67.60
2023-01-03T01:11:59.868Z,67.40
2023-01-03T01:14:45.016Z,68.30
2023-01-03T01:17:33.274Z,68.50
2023-01-03T01:20:19.029Z,68.20
2023-01-03T01:23:04.560Z,67.90
2023-01-03T01:25:52.614Z,67.90
2023-01-03T01:28:41.791Z,67.60
2023-01-03T01:31:27.620Z,67.10
2023-01-03T01:34:13.595Z,67.00
2023-01-03T01:36:59.015Z,66.10
2023-01-03T01:39:44.217Z,66.10
2023-01-03T01:42:47.749Z,65.70
2023-01-03T01:45:35.299Z,67.00
2023-01-03T01:48:20.661Z,66.40
2023-01-03T01:51:09.706Z,66.50
2023-01-03T01:53:59.723Z,66.30
2023-01-03T01:56:50.872Z,66.80
2023-01-03T01:59:38.925Z,65.80
2023-01-03T02:02:24.362Z,65.20
2023-01-03T02:05:11.156Z,64.60
2023-01-03T02:07:59.843Z,64.30
2023-01-03T02:11:09.294Z,64.10
2023-01-03T02:14:26.007Z,64.00
2023-01-03T02:17:31.359Z,64.20
2023-01-03T02:20:19.932Z,64.40
2023-01-03T02:23:23.363Z,64.50
2023-01-03T02:26:38.701Z,64.40
2023-01-03T02:29:39.273Z,65.00
2023-01-03T02:32:33.684Z,65.00
2023-01-03T02:35:36.337Z,65.60
2023-01-03T02:39:23.386Z,66.20
2023-01-03T02:42:55.936Z,66.30
2023-01-03T02:46:05.867Z,66.80
2023-01-03T02:48:57.115Z,67.20
2023-01-03T02:51:57.971Z,67.40
2023-01-03T02:55:14.325Z,67.80
2023-01-03T02:58:19.041Z,67.40
2023-01-03T03:01:10.214Z,67.20
2023-01-03T03:03:57.918Z,67.40
2023-01-03T03:06:49.632Z,66.90
2023-01-03T03:09:55.149Z,66.60
2023-01-03T03:13:13.169Z,65.40
2023-01-03T03:16:01.864Z,64.90
2023-01-03T03:19:01.080Z,63.90
2023-01-03T03:22:05.333Z,63.50
2023-01-03T03:24:51.200Z,63.20
2023-01-03T03:28:03.920Z,63.60
2023-01-03T03:30:53.094Z,63.40
2023-01-03T03:33:49.964Z,63.50
2023-01-03T03:36:56.462Z,63.60
2023-01-03T03:40:00.813Z,64.00
2023-01-03T03:43:26.568Z,64.40
2023-01-03T03:46:21.760Z,63.90
2023-01-03T03:49:31.932Z,63.80
2023-01-03T03:52:20.913Z,63.60
2023-01-03T03:55:15.635Z,63.70
2023-01-03T03:58:10.460Z,64.00
2023-01-03T04:00:56.641Z,64.40
2023-01-03T04:03:44.186Z,65.40
2023-01-03T04:06:38.861Z,65.30
2023-01-03T04:09:27.188Z,65.30
2023-01-03T04:12:14.643Z,66.00
2023-01-03T04:15:00.109Z,65.70
2023-01-03T04:17:45.843Z,66.70
2023-01-03T04:20:32.176Z,67.50
2023-01-03T04:23:18.126Z,67.30
2023-01-03T04:26:03.661Z,67.00
2023-01-03T04:28:48.942Z,67.70
2023-01-03T04:31:34.464Z,67.60
2023-01-03T04:34:22.442Z,67.70
2023-01-03T04:37:09.930Z,68.20
2023-01-03T04:39:55.288Z,68.00
2023-01-03T04:42:59.562Z,68.30
2023-01-03T04:45:45.351Z,68.40
2023-01-03T04:48:30.876Z,68.50
2023-01-03T04:51:18.847Z,68.60
2023-01-03T04:54:05.797Z,68.50
2023-01-03T04:56:50.989Z,68.60
2023-01-03T04:59:37.210Z,68.90
2023-01-03T05:02:22.647Z,68.20
2023-01-03T05:05:11.056Z,68.00
2023-01-03T05:07:56.966Z,67.90
2023-01-03T05:10:42.543Z,68.10
2023-01-03T05:13:30.812Z,68.00
2023-01-03T05:16:16.872Z,68.90
2023-01-03T05:19:02.451Z,69.20
2023-01-03T05:22:08.994Z,69.30
2023-01-03T05:25:13.081Z,69.40
2023-01-03T05:28:02.094Z,69.50
2023-01-03T05:30:47.543Z,70.50
2023-01-03T05:33:33.581Z,70.40
2023-01-03T05:36:21.427Z,71.10
2023-01-03T05:39:08.181Z,71.50
2023-01-03T05:42:02.124Z,72.00
2023-01-03T05:44:47.910Z,72.30
2023-01-03T05:47:34.213Z,72.90
2023-01-03T05:50:19.574Z,72.90
2023-01-03T05:53:05.154Z,72.80
2023-01-03T05:55:50.728Z,72.90
2023-01-03T05:58:38.260Z,72.60
2023-01-03T06:01:26.536Z,72.90
2023-01-03T06:04:12.410Z,73.20
2023-01-03T06:07:00.213Z,73.10
2023-01-03T06:09:45.922Z,73.70
2023-01-03T06:12:31.723Z,73.10
2023-01-03T06:15:17.024Z,72.40
2023-01-03T06:18:04.576Z,73.10
2023-01-03T06:20:49.848Z,72.50
2023-01-03T06:23:35.382Z,72.80
2023-01-03T06:26:23.661Z,72.70
2023-01-03T06:29:14.064Z,72.70
2023-01-03T06:32:05.170Z,72.70
2023-01-03T06:34:54.280Z,72.10
2023-01-03T06:37:39.852Z,72.30
2023-01-03T06:40:34.010Z,72.30
2023-01-03T06:43:23.064Z,72.00
2023-01-03T06:46:32.555Z,72.50
2023-01-03T06:49:37.183Z,72.30
2023-01-03T06:52:55.200Z,73.00
2023-01-03T06:55:46.280Z,73.60
2023-01-03T06:58:37.701Z,73.90
2023-01-03T07:01:26.139Z,74.10
2023-01-03T07:04:13.013Z,74.60
2023-01-03T07:06:58.588Z,74.50
2023-01-03T07:09:44.037Z,74.90
2023-01-03T07:12:48.119Z,75.30
2023-01-03T07:15:33.874Z,75.00
2023-01-03T07:18:19.501Z,75.50
2023-01-03T07:21:10.851Z,75.20
2023-01-03T07:23:57.307Z,75.80
2023-01-03T07:26:42.676Z,75.80
2023-01-03T07:29:28.000Z,75.90
2023-01-03T07:32:17.182Z,76.20
2023-01-03T07:35:02.674Z,75.80
2023-01-03T07:37:47.790Z,76.40
2023-01-03T07:40:33.725Z,75.60
2023-01-03T07:43:37.312Z,75.60
2023-01-03T07:46:28.221Z,76.20
2023-01-03T07:49:16.423Z,75.70
2023-01-03T07:52:02.347Z,76.30
2023-01-03T07:54:50.228Z,75.30
2023-01-03T07:57:38.238Z,75.00
2023-01-03T08:00:24.087Z,74.30
2023-01-03T08:03:11.885Z,74.60
2023-01-03T08:06:02.958Z,74.40
2023-01-03T08:09:09.248Z,74.80
2023-01-03T08:12:13.040Z,74.40
2023-01-03T08:14:58.622Z,74.10
2023-01-03T08:17:46.294Z,74.20
2023-01-03T08:20:34.086Z,74.10
2023-01-03T08:23:20.427Z,74.30
2023-01-03T08:26:07.541Z,74.90
2023-01-03T08:28:55.542Z,75.00
2023-01-03T08:31:46.200Z,75.60
2023-01-03T08:34:36.278Z,75.10
2023-01-03T08:37:22.181Z,74.70
2023-01-03T08:40:10.372Z,74.40
2023-01-03T08:42:57.768Z,74.60
2023-01-03T08:45:43.203Z,74.90
2023-01-03T08:48:31.154Z,74.30
2023-01-03T08:51:19.258Z,74.00
2023-01-03T08:54:09.321Z,74.20
2023-01-03T08:56:54.544Z,74.20
2023-01-03T08:59:40.188Z,74.20
2023-01-03T09:02:25.835Z,73.50
2023-01-03T09:05:13.644Z,73.40
2023-01-03T09:07:59.396Z,73.00
2023-01-03T09:10:47.908Z,72.80
2023-01-03T09:13:34.003Z,72.50
2023-01-03T09:16:21.983Z,72.00
2023-01-03T09:19:07.848Z,71.30
2023-01-03T09:21:53.467Z,71.30
2023-01-03T09:24:38.983Z,71.10
2023-01-03T09:27:27.152Z,70.40
2023-01-03T09:30:16.471Z,70.70
2023-01-03T09:33:05.083Z,69.60
2023-01-03T09:35:57.162Z,69.50
2023-01-03T09:38:49.826Z,68.40
2023-01-03T09:41:35.916Z,67.40
2023-01-03T09:44:21.258Z,67.00
2023-01-03T09:47:07.162Z,66.50
2023-01-03T09:50:27.821Z,66.00
2023-01-03T09:53:23.153Z,65.50
2023-01-03T09:56:34.057Z,65.30
2023-01-03T09:59:38.275Z,65.40
2023-01-03T10:02:45.465Z,64.70
2023-01-03T10:05:59.088Z,64.90
2023-01-03T10:08:56.893Z,64.90
2023-01-03T10:12:03.782Z,64.70
2023-01-03T10:14:52.030Z,64.90
2023-01-03T10:17:43.454Z,64.70
2023-01-03T10:21:01.717Z,64.60
2023-01-03T10:23:50.355Z,64.60
2023-01-03T10:26:38.028Z,64.10
2023-01-03T10:29:24.207Z,64.10
2023-01-03T10:32:36.052Z,63.90
2023-01-03T10:35:29.222Z,63.60
2023-01-03T10:38:16.652Z,63.80
2023-01-03T10:41:06.927Z,63.70
2023-01-03T10:44:04.537Z,63.20
2023-01-03T10:46:53.590Z,62.40
2023-01-03T10:49:47.489Z,61.50
2023-01-03T10:52:40.849Z,60.70
2023-01-03T10:55:27.506Z,60.70
2023-01-03T10:58:29.249Z,60.50
2023-01-03T11:01:24.620Z,59.90
2023-01-03T11:04:19.941Z,58.90
2023-01-03T11:07:09.497Z,59.20
2023-01-03T11:09:58.749Z,59.00
2023-01-03T11:12:44.480Z,59.10
2023-01-03T11:15:38.371Z,59.90
2023-01-03T11:18:28.933Z,58.90
2023-01-03T11:21:32.528Z,58.40
2023-01-03T11:24:48.373Z,58.40
2023-01-03T11:27:47.245Z,58.80
2023-01-03T11:30:50.893Z,58.50
2023-01-03T11:33:45.591Z,58.00
2023-01-03T11:36:50.031Z,57.50
2023-01-03T11:39:57.120Z,57.20
2023-01-03T11:43:16.578Z,57.80
2023-01-03T11:46:26.548Z,57.40
2023-01-03T11:49:36.619Z,57.80
2023-01-03T11:52:37.922Z,57.40
2023-01-03T11:55:55.996Z,57.60
2023-01-03T11:58:59.112Z,58.30
2023-01-03T12:02:06.573Z,57.90
2023-01-03T12:05:17.455Z,57.50
2023-01-03T12:08:11.771Z,57.40
2023-01-03T12:11:21.469Z,56.70
2023-01-03T12:14:25.791Z,56.70
2023-01-03T12:17:18.218Z,57.90
2023-01-03T12:20:15.472Z,58.50
2023-01-03T12:23:41.995Z,57.90
2023-01-03T12:26:30.351Z,57.50
2023-01-03T12:29:43.113Z,58.30
2023-01-03T12:32:44.975Z,58.50
2023-01-03T12:36:01.196Z,57.30
2023-01-03T12:38:59.731Z,57.20
2023-01-03T12:42:09.643Z,57.10
2023-01-03T12:45:13.710Z,56.50
2023-01-03T12:48:05.009Z,55.80
2023-01-03T12:50:52.071Z,55.50
2023-01-03T12:53:49.833Z,54.90
2023-01-03T12:56:42.792Z,53.90
2023-01-03T13:00:03.024Z,53.70
2023-01-03T13:03:17.499Z,53.90
2023-01-03T13:06:12.020Z,54.10
2023-01-03T13:09:04.346Z,53.90
2023-01-03T13:11:56.086Z,54.30
2023-01-03T13:15:04.178Z,54.40
2023-01-03T13:17:50.191Z,54.60
2023-01-03T13:20:36.491Z,54.90
2023-01-03T13:23:33.696Z,54.80
2023-01-03T13:26:26.137Z,54.90
2023-01-03T13:29:42.367Z,54.40
2023-01-03T13:32:36.272Z,53.50
2023-01-03T13:35:50.156Z,53.90
2023-01-03T13:38:35.864Z,55.00
2023-01-03T13:41:37.954Z,55.40
2023-01-03T13:44:24.617Z,56.00
2023-01-03T13:47:26.852Z,56.60
2023-01-03T13:50:31.696Z,53.60
2023-01-03T13:53:22.255Z,48.30
2023-01-03T13:56:16.602Z,45.30
2023-01-03T13:59:14.908Z,50.10
2023-01-03T14:02:06.296Z,52.40
2023-01-03T14:05:20.866Z,54.10
2023-01-03T14:08:21.733Z,55.30
2023-01-03T14:11:32.741Z,56.10
2023-01-03T14:14:27.127Z,56.70
2023-01-03T14:17:19.162Z,57.30
2023-01-03T14:20:09.483Z,57.80
2023-01-03T14:22:57.219Z,58.30
2023-01-03T14:25:44.555Z,58.90
2023-01-03T14:28:34.135Z,59.20
2023-01-03T14:31:26.862Z,59.50
2023-01-03T14:34:39.027Z,59.40
2023-01-03T14:37:26.195Z,60.10
2023-01-03T14:40:19.557Z,59.80
2023-01-03T14:43:05.174Z,59.90
2023-01-03T14:45:58.461Z,60.00
2023-01-03T14:48:47.272Z,60.20
2023-01-03T14:51:35.108Z,60.70
2023-01-03T14:54:20.872Z,60.70
2023-01-03T14:57:06.164Z,61.30
2023-01-03T14:59:53.447Z,61.80
2023-01-03T15:02:40.854Z,62.00
2023-01-03T15:05:32.670Z,62.90
2023-01-03T15:08:31.317Z,63.20
2023-01-03T15:11:56.783Z,63.40
2023-01-03T15:14:42.370Z,64.00
2023-01-03T15:17:30.087Z,64.00
2023-01-03T15:20:22.057Z,64.10
2023-01-03T15:23:23.213Z,64.10
2023-01-03T15:26:18.395Z,65.40
2023-01-03T15:29:15.641Z,65.60
2023-01-03T15:32:02.067Z,66.10
2023-01-03T15:34:49.873Z,66.50
2023-01-03T15:37:35.408Z,66.30
2023-01-03T15:40:20.805Z,67.20
2023-01-03T15:43:24.433Z,67.20
2023-01-03T15:46:17.088Z,67.70
2023-01-03T15:49:06.809Z,68.30
2023-01-03T15:51:52.330Z,68.80
2023-01-03T15:54:37.840Z,69.20
2023-01-03T15:57:28.325Z,70.00
2023-01-03T16:00:18.484Z,70.10
2023-01-03T16:03:05.052Z,70.30
2023-01-03T16:05:50.782Z,70.40
2023-01-03T16:08:40.995Z,71.20
2023-01-03T16:11:33.810Z,71.80
2023-01-03T16:14:23.587Z,71.60
2023-01-03T16:17:24.412Z,72.10
2023-01-03T16:20:14.978Z,72.60
2023-01-03T16:23:01.940Z,72.70
2023-01-03T16:25:52.167Z,72.90
2023-01-03T16:28:37.644Z,72.90
2023-01-03T16:31:31.930Z,73.30
2023-01-03T16:34:22.303Z,73.30
2023-01-03T16:37:10.340Z,73.50
2023-01-03T16:39:58.421Z,74.00
2023-01-03T16:42:44.472Z,74.10
2023-01-03T16:45:30.402Z,74.40
2023-01-03T16:48:23.786Z,75.30
2023-01-03T16:51:20.706Z,75.90
2023-01-03T16:54:08.287Z,76.30
2023-01-03T16:56:53.538Z,77.10
2023-01-03T16:59:38.984Z,77.20
2023-01-03T17:02:26.714Z,77.30
2023-01-03T17:05:12.687Z,77.60
2023-01-03T17:08:22.905Z,77.80
2023-01-03T17:11:09.745Z,77.80
2023-01-03T17:14:03.489Z,78.20
2023-01-03T17:16:51.417Z,78.60
2023-01-03T17:20:03.569Z,78.80
2023-01-03T17:22:57.765Z,79.30
2023-01-03T17:25:43.405Z,79.40
2023-01-03T17:28:29.516Z,79.90
2023-01-03T17:31:22.039Z,80.50
2023-01-03T17:34:16.813Z,80.80
2023-01-03T17:37:03.188Z,81.10
2023-01-03T17:40:00.478Z,81.50
2023-01-03T17:42:53.663Z,81.80
2023-01-03T17:45:57.695Z,82.00
2023-01-03T17:49:01.683Z,81.90
2023-01-03T17:51:47.188Z,82.20
2023-01-03T17:54:39.313Z,82.60
2023-01-03T17:57:27.604Z,82.60
2023-01-03T18:00:19.257Z,82.90
2023-01-03T18:03:05.009Z,83.20
2023-01-03T18:05:53.161Z,83.90
2023-01-03T18:08:38.555Z,83.70
2023-01-03T18:11:27.112Z,84.30
2023-01-03T18:14:16.205Z,84.40
2023-01-03T18:17:17.407Z,85.00
2023-01-03T18:20:06.450Z,84.80
2023-01-03T18:22:52.149Z,85.40
2023-01-03T18:25:37.879Z,85.60
2023-01-03T18:28:25.715Z,85.90
2023-01-03T18:31:16.685Z,86.20
2023-01-03T18:34:04.605Z,86.60
2023-01-03T18:36:51.815Z,87.20
2023-01-03T18:39:37.131Z,87.80
2023-01-03T18:42:40.914Z,88.40
2023-01-03T18:45:26.378Z,88.80
2023-01-03T18:48:20.726Z,88.30
2023-01-03T18:51:09.079Z,88.00
2023-01-03T18:53:57.983Z,87.50
2023-01-03T18:56:46.426Z,88.20
2023-01-03T18:59:34.331Z,88.30
2023-01-03T19:02:24.569Z,88.20
2023-01-03T19:05:10.172Z,88.70
2023-01-03T19:07:55.981Z,88.90
2023-01-03T19:10:43.559Z,89.50
2023-01-03T19:13:50.098Z,89.70
2023-01-03T19:16:40.144Z,90.20
2023-01-03T19:19:26.024Z,90.60
2023-01-03T19:22:33.878Z,90.60
2023-01-03T19:25:29.730Z,90.40
2023-01-03T19:28:21.996Z,90.30
2023-01-03T19:31:14.764Z,90.30
2023-01-03T19:34:00.351Z,90.10
2023-01-03T19:36:47.111Z,89.30
2023-01-03T19:39:37.567Z,89.00
2023-01-03T19:42:42.071Z,88.30
2023-01-03T19:45:36.875Z,87.70
2023-01-03T19:48:24.812Z,87.40
2023-01-03T19:51:12.282Z,87.50
2023-01-03T19:53:58.112Z,88.00
2023-01-03T19:56:44.385Z,88.00
2023-01-03T19:59:34.714Z,87.50
2023-01-03T20:02:32.918Z,86.50
2023-01-03T20:05:24.904Z,85.70
2023-01-03T20:08:12.723Z,85.00
2023-01-03T20:11:00.963Z,84.80
2023-01-03T20:13:47.305Z,84.70
2023-01-03T20:16:32.658Z,83.80
2023-01-03T20:19:21.376Z,83.20
2023-01-03T20:22:06.907Z,82.50
2023-01-03T20:24:53.098Z,81.60
2023-01-03T20:27:44.821Z,80.80
2023-01-03T20:30:36.527Z,80.50
2023-01-03T20:33:22.447Z,79.40
2023-01-03T20:36:23.178Z,79.30
2023-01-03T20:39:29.399Z,78.90
2023-01-03T20:42:24.874Z,78.10
2023-01-03T20:45:11.938Z,77.80
2023-01-03T20:48:00.094Z,77.00
2023-01-03T20:50:45.969Z,76.90
2023-01-03T20:53:31.855Z,76.60
2023-01-03T20:56:17.521Z,76.30
2023-01-03T20:59:03.479Z,76.20
2023-01-03T21:01:49.463Z,76.30
2023-01-03T21:04:37.024Z,77.00
2023-01-03T21:07:50.409Z,77.30
2023-01-03T21:10:41.854Z,77.90
2023-01-03T21:13:29.698Z,78.40
2023-01-03T21:16:33.769Z,78.60
2023-01-03T21:19:24.405Z,78.20
2023-01-03T21:22:19.479Z,78.20
2023-01-03T21:25:07.190Z,77.80
2023-01-03T21:27:55.276Z,77.60
2023-01-03T21:30:44.456Z,77.30
2023-01-03T21:33:31.882Z,77.00
2023-01-03T21:36:24.049Z,76.90
2023-01-03T21:39:10.256Z,76.60
2023-01-03T21:42:14.231Z,76.40
2023-01-03T21:45:02.901Z,76.00
2023-01-03T21:47:48.180Z,75.90
2023-01-03T21:50:34.340Z,75.70
2023-01-03T21:53:23.493Z,75.40
2023-01-03T21:56:20.654Z,75.30
2023-01-03T21:59:05.980Z,75.10
2023-01-03T22:02:10.420Z,75.10
2023-01-03T22:04:55.972Z,74.90
2023-01-03T22:07:44.378Z,75.00
2023-01-03T22:10:30.914Z,74.70
2023-01-03T22:13:16.103Z,75.40
2023-01-03T22:16:06.487Z,74.60
2023-01-03T22:18:52.446Z,74.60
2023-01-03T22:21:38.029Z,74.60
2023-01-03T22:24:23.692Z,74.60
2023-01-03T22:27:12.539Z,74.60
2023-01-03T22:30:01.165Z,74.50
2023-01-03T22:32:48.334Z,74.40
2023-01-03T22:35:34.599Z,75.00
2023-01-03T22:38:20.237Z,75.60
2023-01-03T22:41:11.909Z,76.10
2023-01-03T22:43:58.332Z,76.80
2023-01-03T22:46:44.636Z,77.30
2023-01-03T22:49:31.268Z,79.10
2023-01-03T22:52:17.604Z,78.60
2023-01-03T22:55:04.016Z,79.40
2023-01-03T22:57:52.664Z,79.50
2023-01-03T23:00:38.571Z,80.20
2023-01-03T23:03:26.757Z,80.30
2023-01-03T23:06:17.841Z,81.50
2023-01-03T23:09:04.433Z,81.50
2023-01-03T23:12:08.459Z,82.50
2023-01-03T23:14:54.242Z,83.20
2023-01-03T23:17:57.894Z,83.60
2023-01-03T23:20:48.838Z,84.50
2023-01-03T23:23:34.609Z,84.50
2023-01-03T23:26:20.793Z,85.20
2023-01-03T23:29:07.056Z,85.70
2023-01-03T23:31:55.423Z,86.50
2023-01-03T23:34:43.252Z,86.80
2023-01-03T23:37:30.995Z,87.00
2023-01-03T23:40:16.984Z,87.50
2023-01-03T23:43:02.622Z,88.00
2023-01-03T23:45:51.009Z,89.00
2023-01-03T23:48:36.957Z,88.70
2023-01-03T23:51:24.028Z,89.20
2023-01-03T23:54:12.408Z,89.50
2023-01-03T23:56:58.073Z,89.70
2023-01-03T23:59:44.044Z,90.00
